Time;durP1;ratioP1;P1;durP2;ratioP2;P2;SDS_P1;SDS_P2;PMS_P1;PMS_P2;Temp;Humidity;BMP_temperature;BMP_pressure;BME280_temperature;BME280_humidity;BME280_pressure;Samples;Min_cycle;Max_cycle;Signal;HPM_P1;HPM_P2
2023/10/07 00:00:49;;;;;;;1.00;0.43;;;11.90;61.80;;;;;;5032747;28;20035;-71
2023/10/07 00:03:17;;;;;;;1.38;0.82;;;11.90;62.30;;;;;;5017346;28;20037;-70
2023/10/07 00:05:46;;;;;;;1.75;0.52;;;11.90;62.60;;;;;;5051043;28;20115;-70
2023/10/07 00:08:16;;;;;;;2.03;0.95;;;11.90;62.70;;;;;;5034125;28;20394;-71
2023/10/07 00:10:46;;;;;;;0.80;0.35;;;12.00;63.20;;;;;;5033188;28;20048;-70
2023/10/07 00:13:13;;;;;;;1.60;0.75;;;12.00;63.20;;;;;;5034213;28;20041;-70
2023/10/07 00:15:46;;;;;;;0.88;0.68;;;12.10;63.30;;;;;;5033133;28;20029;-70
2023/10/07 00:18:13;;;;;;;1.98;1.20;;;12.10;63.50;;;;;;5033800;28;20383;-70
2023/10/07 00:23:28;;;;;;;1.63;1.02;;;12.30;63.70;;;;;;5051307;28;19979;-71
2023/10/07 00:28:51;;;;;;;1.23;0.68;;;12.20;64.00;;;;;;5036483;28;19924;-71
2023/10/07 00:31:22;;;;;;;4.95;1.77;;;12.20;64.50;;;;;;5033943;28;20037;-71
2023/10/07 00:39:21;;;;;;;1.73;0.65;;;12.30;65.30;;;;;;5051480;28;20033;-71
2023/10/07 00:41:50;;;;;;;1.15;0.68;;;12.30;65.30;;;;;;5050257;28;20037;-70
2023/10/07 00:44:19;;;;;;;2.80;0.50;;;12.20;65.60;;;;;;5033952;28;20405;-70
2023/10/07 00:46:49;;;;;;;1.92;1.08;;;12.20;66.00;;;;;;5033193;28;20029;-70
2023/10/07 00:49:22;;;;;;;0.57;0.40;;;12.20;65.80;;;;;;5035142;28;20037;-70
2023/10/07 00:51:51;;;;;;;1.20;0.85;;;12.20;65.40;;;;;;5036668;28;20059;-70
2023/10/07 00:54:30;;;;;;;0.35;0.35;;;12.20;66.10;;;;;;5037325;28;20037;-70
2023/10/07 00:57:22;;;;;;;0.85;0.68;;;12.20;66.10;;;;;;5038240;28;20036;-71
2023/10/07 00:59:51;;;;;;;0.70;0.40;;;12.20;66.10;;;;;;5040873;28;20033;-70
2023/10/07 01:02:30;;;;;;;1.17;0.63;;;12.10;65.90;;;;;;5036207;28;20064;-71
2023/10/07 01:07:59;;;;;;;1.08;0.50;;;12.20;65.90;;;;;;5039392;28;20064;-71
2023/10/07 01:10:26;;;;;;;0.77;0.50;;;12.10;65.70;;;;;;5035607;28;20037;-70
2023/10/07 01:12:55;;;;;;;1.60;1.25;;;12.10;65.50;;;;;;5054369;28;20036;-71
2023/10/07 01:18:06;;;;;;;1.65;0.80;;;12.10;65.40;;;;;;5054390;28;20055;-70
2023/10/07 01:23:33;;;;;;;3.20;0.65;;;12.00;65.60;;;;;;5039617;28;20379;-71
2023/10/07 01:26:01;;;;;;;1.35;0.73;;;12.00;64.90;;;;;;5037878;28;20120;-71
2023/10/07 01:28:27;;;;;;;0.38;0.38;;;11.90;65.60;;;;;;5036650;28;20033;-71
2023/10/07 01:34:01;;;;;;;1.50;1.10;;;11.90;65.60;;;;;;5054361;28;20377;-71
2023/10/07 01:36:27;;;;;;;1.33;0.65;;;11.90;65.40;;;;;;5053642;28;20482;-70
2023/10/07 01:38:54;;;;;;;1.30;0.68;;;11.70;65.70;;;;;;5054161;28;20086;-70
2023/10/07 01:41:27;;;;;;;1.13;0.70;;;11.70;65.70;;;;;;5053088;28;20086;-71
2023/10/07 01:44:00;;;;;;;1.65;0.63;;;11.70;65.70;;;;;;5036743;28;20124;-70
2023/10/07 01:46:28;;;;;;;1.02;0.70;;;11.70;65.90;;;;;;5036335;28;20501;-70
2023/10/07 01:48:57;;;;;;;2.13;0.98;;;11.70;65.80;;;;;;5036071;28;20223;-71
2023/10/07 01:51:44;;;;;;;0.38;0.38;;;11.60;65.70;;;;;;5034934;28;20091;-70
2023/10/07 01:54:11;;;;;;;0.73;0.30;;;11.60;66.00;;;;;;5053978;28;20533;-71
2023/10/07 01:56:38;;;;;;;2.70;1.05;;;11.60;65.80;;;;;;5035726;28;20040;-70
2023/10/07 02:02:11;;;;;;;1.65;0.70;;;11.70;65.90;;;;;;5051098;28;20037;-70
2023/10/07 02:04:37;;;;;;;1.42;0.93;;;11.70;66.30;;;;;;5053322;28;20175;-70
2023/10/07 02:07:04;;;;;;;1.13;0.75;;;11.70;66.30;;;;;;5035350;28;20036;-70
2023/10/07 02:09:36;;;;;;;0.77;0.68;;;11.70;66.50;;;;;;5053548;28;20045;-71
2023/10/07 02:14:48;;;;;;;1.67;1.15;;;11.50;66.60;;;;;;5053721;28;20107;-70
2023/10/07 02:17:18;;;;;;;1.00;0.60;;;11.70;67.10;;;;;;5034804;28;20033;-70
2023/10/07 02:19:44;;;;;;;0.43;0.40;;;11.70;66.80;;;;;;5053811;28;20667;-70
2023/10/07 02:22:28;;;;;;;1.17;0.95;;;11.70;66.70;;;;;;5051969;28;20037;-70
2023/10/07 02:25:03;;;;;;;1.13;0.80;;;11.70;67.00;;;;;;5038105;28;20033;-70
2023/10/07 02:27:38;;;;;;;1.55;0.73;;;11.70;67.30;;;;;;5052716;28;20037;-70
2023/10/07 02:30:05;;;;;;;0.75;0.60;;;11.70;67.30;;;;;;5052534;28;20128;-70
2023/10/07 02:32:32;;;;;;;1.20;0.85;;;11.70;67.10;;;;;;5052803;28;20028;-70
2023/10/07 02:35:00;;;;;;;2.83;0.77;;;11.70;67.60;;;;;;5053365;28;20033;-70
2023/10/07 02:37:31;;;;;;;1.27;0.95;;;11.70;67.90;;;;;;5035028;28;20025;-70
2023/10/07 02:40:19;;;;;;;1.27;0.98;;;11.70;67.10;;;;;;5035861;28;20493;-70
2023/10/07 02:42:50;;;;;;;1.00;0.65;;;11.70;67.60;;;;;;5052545;28;20049;-70
2023/10/07 02:47:47;;;;;;;0.85;0.57;;;11.60;67.50;;;;;;5034827;28;20407;-70
2023/10/07 02:50:13;;;;;;;1.35;0.90;;;11.60;67.50;;;;;;5034317;28;20041;-70
2023/10/07 02:52:40;;;;;;;0.30;0.30;;;11.50;67.00;;;;;;5034588;28;20037;-69
2023/10/07 02:57:57;;;;;;;1.60;1.23;;;11.50;67.30;;;;;;5052550;28;20048;-70
2023/10/07 03:00:49;;;;;;;2.17;1.02;;;11.50;67.50;;;;;;5034551;28;20052;-70
2023/10/07 03:06:00;;;;;;;3.47;0.65;;;11.40;66.60;;;;;;5035753;28;20067;-71
2023/10/07 03:08:51;;;;;;;0.80;0.75;;;11.40;66.70;;;;;;5052382;28;20025;-70
2023/10/07 03:11:21;;;;;;;0.40;0.40;;;11.40;67.10;;;;;;5033543;28;20045;-71
2023/10/07 03:13:56;;;;;;;1.13;0.40;;;11.50;67.40;;;;;;5051592;28;20082;-70
2023/10/07 03:24:41;;;;;;;0.73;0.52;;;11.50;67.60;;;;;;5039344;28;20053;-71
2023/10/07 03:27:11;;;;;;;0.95;0.43;;;11.40;67.80;;;;;;5051645;28;20029;-71
2023/10/07 03:29:41;;;;;;;0.93;0.43;;;11.30;68.20;;;;;;5034226;28;20041;-70
2023/10/07 03:32:12;;;;;;;1.85;0.30;;;11.30;68.00;;;;;;5033809;28;20094;-70
2023/10/07 03:34:57;;;;;;;0.68;0.28;;;11.40;68.30;;;;;;5052253;28;20040;-70
2023/10/07 03:37:25;;;;;;;1.60;0.88;;;11.30;68.30;;;;;;5033681;28;20047;-71
2023/10/07 03:40:25;;;;;;;0.65;0.50;;;11.40;68.60;;;;;;5052387;28;20041;-70
2023/10/07 03:42:45;;;;;;;0.80;0.60;;;11.40;68.40;;;;;;5051301;28;20090;-71
2023/10/07 03:45:14;;;;;;;0.93;0.43;;;11.40;68.20;;;;;;5051340;28;20037;-71
2023/10/07 03:47:42;;;;;;;0.77;0.63;;;11.40;68.20;;;;;;5051666;28;20472;-70
2023/10/07 03:50:24;;;;;;;2.15;0.68;;;11.40;68.10;;;;;;5050735;28;20029;-70
2023/10/07 03:52:50;;;;;;;0.55;0.52;;;11.40;67.50;;;;;;5051714;28;20175;-70
2023/10/07 03:55:16;;;;;;;1.17;0.50;;;11.40;68.00;;;;;;5050242;28;20291;-70
2023/10/07 03:57:43;;;;;;;2.08;1.25;;;11.40;68.30;;;;;;5033845;28;20033;-70
2023/10/07 04:00:11;;;;;;;;;;;11.40;68.30;;;;;;5051425;28;20033;-71
2023/10/07 04:02:39;;;;;;;2.03;0.93;;;11.30;68.20;;;;;;5033551;28;19913;-71
2023/10/07 04:07:50;;;;;;;1.23;0.98;;;11.20;68.50;;;;;;5051684;28;20044;-70
2023/10/07 04:12:47;;;;;;;1.17;0.98;;;11.20;68.40;;;;;;5033744;28;20122;-70
2023/10/07 04:15:17;;;;;;;0.22;0.20;;;11.30;68.60;;;;;;5051096;28;20045;-70
2023/10/07 04:17:44;;;;;;;0.40;0.30;;;11.20;68.40;;;;;;5034257;28;20040;-70
2023/10/07 04:20:24;;;;;;;1.48;0.90;;;11.20;68.40;;;;;;5032849;28;20060;-70
2023/10/07 04:23:02;;;;;;;0.75;0.40;;;11.30;68.40;;;;;;5035474;28;20076;-70
2023/10/07 04:25:32;;;;;;;1.38;0.50;;;11.30;68.50;;;;;;5021246;28;20544;-70
2023/10/07 04:27:58;;;;;;;0.40;0.40;;;11.20;68.60;;;;;;5037911;28;20033;-71
2023/10/07 04:30:31;;;;;;;1.55;0.65;;;11.20;68.40;;;;;;5036604;28;20051;-71
2023/10/07 04:33:00;;;;;;;0.63;0.47;;;11.20;68.00;;;;;;5055568;28;20624;-71
2023/10/07 04:35:30;;;;;;;1.23;0.50;;;11.20;68.60;;;;;;5054679;28;20079;-70
2023/10/07 04:38:08;;;;;;;0.65;0.65;;;11.20;68.70;;;;;;5037519;28;20045;-70
2023/10/07 04:41:30;;;;;;;1.13;0.60;;;11.20;68.80;;;;;;5054097;28;20071;-71
2023/10/07 04:43:50;;;;;;;2.25;0.82;;;11.10;68.90;;;;;;5053953;28;20037;-70
2023/10/07 04:46:23;;;;;;;1.15;0.85;;;11.10;68.90;;;;;;5038114;28;20040;-70
2023/10/07 04:49:15;;;;;;;2.30;1.05;;;11.10;69.00;;;;;;5055122;28;20045;-70
2023/10/07 04:54:07;;;;;;;1.00;0.52;;;11.10;68.80;;;;;;5055031;28;20112;-71
2023/10/07 04:56:35;;;;;;;1.98;1.00;;;11.10;68.80;;;;;;5054300;28;20473;-70
2023/10/07 04:59:05;;;;;;;0.65;0.45;;;11.00;68.80;;;;;;5037397;28;20034;-71
2023/10/07 05:01:35;;;;;;;0.40;0.40;;;11.10;68.80;;;;;;5036643;28;20077;-70
2023/10/07 05:04:10;;;;;;;1.83;0.88;;;11.10;68.60;;;;;;5055108;28;20041;-71
2023/10/07 05:06:38;;;;;;;0.77;0.60;;;11.10;68.50;;;;;;5020786;28;20037;-70
2023/10/07 05:09:18;;;;;;;1.02;0.63;;;11.10;68.60;;;;;;5036992;28;20025;-70
2023/10/07 05:11:46;;;;;;;2.03;1.02;;;11.10;68.70;;;;;;5037712;28;20128;-70
2023/10/07 05:14:17;;;;;;;1.60;0.88;;;11.20;68.60;;;;;;5054520;28;20033;-70
2023/10/07 05:16:46;;;;;;;0.47;0.38;;;11.10;68.40;;;;;;5036659;28;20057;-71
2023/10/07 05:19:19;;;;;;;1.27;0.77;;;11.20;68.40;;;;;;5036927;28;20041;-70
2023/10/07 05:22:14;;;;;;;1.17;0.80;;;11.10;68.50;;;;;;5052277;28;20128;-70
2023/10/07 05:24:45;;;;;;;0.73;0.43;;;11.20;68.60;;;;;;5018118;28;20041;-70
2023/10/07 05:27:12;;;;;;;1.80;1.20;;;11.20;68.50;;;;;;5016771;28;20120;-70
2023/10/07 05:29:40;;;;;;;0.90;0.73;;;11.20;68.50;;;;;;5033143;28;20044;-70
2023/10/07 05:32:06;;;;;;;0.60;0.52;;;11.30;68.40;;;;;;5032018;28;20033;-70
2023/10/07 05:34:33;;;;;;;6.57;1.00;;;11.30;68.70;;;;;;5033985;28;20151;-70
2023/10/07 05:37:15;;;;;;;0.85;0.47;;;11.30;68.60;;;;;;5032741;28;20030;-71
2023/10/07 05:39:41;;;;;;;1.10;0.85;;;11.30;68.60;;;;;;5034464;28;20054;-70
2023/10/07 05:42:10;;;;;;;;;;;11.40;68.20;;;;;;5033617;28;20525;-70
2023/10/07 05:44:37;;;;;;;0.65;0.57;;;11.40;68.30;;;;;;5016718;28;20289;-70
2023/10/07 05:47:03;;;;;;;1.25;0.77;;;11.40;68.60;;;;;;5032068;28;20437;-70
2023/10/07 05:49:31;;;;;;;0.40;0.40;;;11.40;68.70;;;;;;5034300;28;20390;-70
2023/10/07 05:51:58;;;;;;;0.55;0.50;;;11.40;68.70;;;;;;5031513;28;20033;-70
2023/10/07 05:54:28;;;;;;;0.98;0.68;;;11.50;68.50;;;;;;5016148;28;20044;-70
2023/10/07 05:56:55;;;;;;;1.25;1.05;;;11.50;68.40;;;;;;5032149;28;20026;-70
2023/10/07 05:59:22;;;;;;;1.30;0.88;;;11.50;68.30;;;;;;5032659;28;20037;-70
2023/10/07 06:01:48;;;;;;;1.08;0.70;;;11.60;67.80;;;;;;5032836;28;20087;-70
2023/10/07 06:04:15;;;;;;;0.63;0.57;;;11.60;68.40;;;;;;5036649;28;20048;-69
2023/10/07 06:06:42;;;;;;;0.20;0.20;;;11.60;68.60;;;;;;5031819;28;20033;-69
2023/10/07 06:09:14;;;;;;;1.13;0.80;;;11.70;67.70;;;;;;5015859;28;20046;-70
2023/10/07 06:11:51;;;;;;;1.33;0.73;;;11.80;68.00;;;;;;5031289;28;20072;-69
2023/10/07 06:14:18;;;;;;;1.50;0.88;;;11.80;67.80;;;;;;5032028;28;20033;-70
2023/10/07 06:16:45;;;;;;;2.95;2.05;;;11.80;67.80;;;;;;5032810;28;20398;-70
2023/10/07 06:19:14;;;;;;;4.97;2.08;;;11.90;67.60;;;;;;5033651;28;20044;-70
2023/10/07 06:21:50;;;;;;;3.00;1.00;;;11.90;67.60;;;;;;5031042;28;20044;-70
2023/10/07 06:24:36;;;;;;;1.60;0.63;;;11.90;67.90;;;;;;5033556;28;20061;-69
2023/10/07 06:27:06;;;;;;;0.82;0.40;;;11.90;67.80;;;;;;5032751;28;20272;-70
2023/10/07 06:29:33;;;;;;;1.08;0.60;;;11.70;68.30;;;;;;5033521;28;20052;-70
2023/10/07 06:35:13;;;;;;;1.13;0.75;;;11.90;68.40;;;;;;5032860;28;20042;-70
2023/10/07 06:37:41;;;;;;;1.35;0.70;;;12.00;68.00;;;;;;5032896;28;20117;-70
2023/10/07 06:42:55;;;;;;;1.15;1.05;;;12.10;67.40;;;;;;5032932;28;20517;-70
2023/10/07 06:45:22;;;;;;;5.82;1.98;;;12.30;67.20;;;;;;5015134;28;20025;-70
2023/10/07 06:47:49;;;;;;;3.72;1.55;;;12.40;67.10;;;;;;5032588;28;20079;-70
2023/10/07 06:50:20;;;;;;;;;;;12.50;67.10;;;;;;5032284;28;20022;-69
2023/10/07 06:52:49;;;;;;;2.65;1.58;;;12.60;67.10;;;;;;5032750;28;20431;-69
2023/10/07 06:55:15;;;;;;;2.42;1.67;;;12.70;66.70;;;;;;5032040;28;20052;-70
2023/10/07 06:57:45;;;;;;;;;;;12.80;66.80;;;;;;5015586;28;20079;-70
2023/10/07 07:00:37;;;;;;;1.52;1.00;;;12.90;66.90;;;;;;4997849;28;19913;-70
2023/10/07 07:03:09;;;;;;;0.77;0.55;;;13.00;66.50;;;;;;5032527;28;20480;-69
2023/10/07 07:05:36;;;;;;;2.47;1.35;;;13.20;65.90;;;;;;5032031;28;20033;-69
2023/10/07 07:08:09;;;;;;;1.00;0.70;;;13.20;65.70;;;;;;5014798;28;20052;-69
2023/10/07 07:10:35;;;;;;;0.35;0.32;;;13.30;65.70;;;;;;5014913;28;20446;-70
2023/10/07 07:13:15;;;;;;;1.02;0.57;;;13.40;65.40;;;;;;5032354;28;20052;-70
2023/10/07 07:15:41;;;;;;;6.93;1.20;;;13.50;65.40;;;;;;5016585;28;20398;-70
2023/10/07 07:21:13;;;;;;;0.75;0.55;;;13.70;65.00;;;;;;5031550;28;20037;-70
2023/10/07 07:23:49;;;;;;;1.13;0.70;;;13.90;64.60;;;;;;5045074;28;20136;-71
2023/10/07 07:26:21;;;;;;;0.67;0.30;;;14.00;64.10;;;;;;5035358;28;20029;-70
2023/10/07 07:28:48;;;;;;;2.17;0.75;;;13.90;63.90;;;;;;5052270;28;20049;-70
2023/10/07 07:31:26;;;;;;;0.10;0.10;;;14.00;64.30;;;;;;5016734;28;20036;-70
2023/10/07 07:33:52;;;;;;;0.52;0.47;;;14.10;64.30;;;;;;5019375;28;20544;-70
2023/10/07 07:36:37;;;;;;;0.85;0.30;;;14.30;64.20;;;;;;5051548;28;20040;-70
2023/10/07 07:41:56;;;;;;;0.55;0.45;;;14.50;63.30;;;;;;5051027;28;20048;-70
2023/10/07 07:44:32;;;;;;;0.55;0.52;;;14.70;63.10;;;;;;5052284;28;20049;-70
2023/10/07 07:47:17;;;;;;;0.93;0.47;;;14.80;62.70;;;;;;5034825;28;20471;-70
2023/10/07 07:49:43;;;;;;;2.63;1.25;;;14.90;62.40;;;;;;5052205;28;20049;-70
2023/10/07 07:52:11;;;;;;;0.65;0.35;;;14.90;62.40;;;;;;5050806;28;20041;-69
2023/10/07 07:54:37;;;;;;;0.55;0.45;;;15.10;62.60;;;;;;5017845;28;20501;-70
2023/10/07 07:57:04;;;;;;;1.10;0.57;;;15.40;61.70;;;;;;5033252;28;20452;-70
2023/10/07 08:02:17;;;;;;;0.60;0.52;;;15.90;61.20;;;;;;5053931;28;20037;-69
2023/10/07 08:04:50;;;;;;;1.10;0.60;;;16.10;60.40;;;;;;5056069;28;20037;-70
2023/10/07 08:07:19;;;;;;;1.55;1.05;;;16.30;59.70;;;;;;5054213;28;20029;-70
2023/10/07 08:09:50;;;;;;;1.50;0.98;;;16.60;58.90;;;;;;5021344;28;20371;-69
2023/10/07 08:12:36;;;;;;;0.13;0.13;;;16.60;58.50;;;;;;5037424;28;20504;-69
2023/10/07 08:17:37;;;;;;;1.25;1.00;;;17.20;58.00;;;;;;5038638;28;20021;-70
2023/10/07 08:20:10;;;;;;;0.93;0.82;;;17.30;57.50;;;;;;5054961;28;20037;-71
2023/10/07 08:22:45;;;;;;;2.47;1.95;;;18.20;56.20;;;;;;5021296;28;20060;-70
2023/10/07 08:28:04;;;;;;;1.40;0.70;;;20.30;49.80;;;;;;5055323;28;20055;-69
2023/10/07 08:30:39;;;;;;;1.27;0.45;;;21.80;48.00;;;;;;5036373;28;20068;-69
2023/10/07 08:33:06;;;;;;;1.35;0.85;;;22.00;46.20;;;;;;5055280;28;20037;-69
2023/10/07 08:35:34;;;;;;;1.25;0.60;;;21.80;47.20;;;;;;5036902;28;20116;-71
2023/10/07 08:38:03;;;;;;;1.20;0.45;;;23.10;44.00;;;;;;5055513;28;20052;-70
2023/10/07 08:40:39;;;;;;;1.05;0.80;;;24.80;41.30;;;;;;5036215;28;20044;-71
2023/10/07 08:43:18;;;;;;;0.30;0.30;;;26.10;38.60;;;;;;5022472;28;20067;-70
2023/10/07 08:45:45;;;;;;;0.63;0.45;;;27.10;36.40;;;;;;5037429;28;20048;-70
2023/10/07 08:48:15;;;;;;;1.45;0.85;;;27.60;34.60;;;;;;5036810;28;20143;-71
2023/10/07 08:50:59;;;;;;;1.13;0.80;;;27.60;33.10;;;;;;5036781;28;20439;-70
2023/10/07 08:53:31;;;;;;;0.47;0.45;;;27.50;34.00;;;;;;5039521;28;20037;-70
2023/10/07 08:55:57;;;;;;;1.05;0.70;;;28.00;33.20;;;;;;5037277;28;20116;-71
2023/10/07 08:58:28;;;;;;;0.65;0.57;;;28.30;31.80;;;;;;5054838;28;20071;-70
2023/10/07 09:00:56;;;;;;;1.05;0.70;;;28.80;30.40;;;;;;5036483;28;20037;-72
2023/10/07 09:03:29;;;;;;;0.30;0.30;;;29.50;29.20;;;;;;5036711;28;20029;-72
2023/10/07 09:06:00;;;;;;;0.77;0.77;;;29.90;28.90;;;;;;5037165;28;20037;-72
2023/10/07 09:08:26;;;;;;;0.65;0.65;;;30.80;28.20;;;;;;5034642;28;20033;-72
2023/10/07 09:10:55;;;;;;;0.40;0.40;;;31.30;27.30;;;;;;5033656;28;20153;-72
2023/10/07 09:19:15;;;;;;;0.63;0.50;;;32.00;26.30;;;;;;5039456;28;20094;-72
2023/10/07 09:21:45;;;;;;;0.35;0.30;;;30.80;26.50;;;;;;5036714;28;20039;-72
2023/10/07 09:24:24;;;;;;;3.78;0.50;;;29.40;29.00;;;;;;5054406;28;20055;-73
2023/10/07 09:26:58;;;;;;;0.38;0.32;;;28.00;30.80;;;;;;5019749;28;20029;-71
2023/10/07 09:29:25;;;;;;;0.25;0.25;;;27.10;31.60;;;;;;5020985;28;20033;-72
2023/10/07 09:37:21;;;;;;;0.22;0.22;;;25.70;34.40;;;;;;5050460;28;20044;-71
2023/10/07 09:39:55;;;;;;;0.68;0.30;;;25.30;34.80;;;;;;5036223;28;20033;-71
2023/10/07 09:42:36;;;;;;;0.60;0.60;;;25.10;35.80;;;;;;5035509;28;20033;-71
2023/10/07 09:47:37;;;;;;;0.35;0.32;;;24.60;37.00;;;;;;5054174;28;20037;-72
2023/10/07 09:50:19;;;;;;;0.55;0.30;;;24.40;37.20;;;;;;5035684;28;20040;-72
2023/10/07 09:53:24;;;;;;;0.50;0.40;;;24.30;38.00;;;;;;5037852;28;20395;-71
2023/10/07 09:56:29;;;;;;;0.35;0.35;;;24.10;38.10;;;;;;5053246;28;20492;-72
2023/10/07 09:59:53;;;;;;;0.57;0.32;;;24.00;37.80;;;;;;5053932;28;20052;-72
2023/10/07 10:03:03;;;;;;;1.05;0.70;;;23.80;38.80;;;;;;5051382;28;20041;-71
2023/10/07 10:06:03;;;;;;;0.90;0.90;;;23.70;39.30;;;;;;5053009;28;20128;-72
2023/10/07 10:08:55;;;;;;;0.40;0.40;;;23.50;39.60;;;;;;5019659;28;20795;-71
2023/10/07 10:17:00;;;;;;;0.85;0.65;;;23.10;40.50;;;;;;5035942;28;20033;-69
2023/10/07 10:19:47;;;;;;;0.68;0.50;;;23.00;41.30;;;;;;5053615;28;20187;-71
2023/10/07 10:22:22;;;;;;;2.78;0.93;;;22.90;41.60;;;;;;5051743;28;20071;-72
2023/10/07 10:24:55;;;;;;;0.47;0.30;;;22.90;41.00;;;;;;5053622;28;20502;-70
2023/10/07 10:27:21;;;;;;;0.32;0.32;;;22.90;41.00;;;;;;5035771;28;20029;-71
2023/10/07 10:30:03;;;;;;;2.08;0.55;;;23.00;41.30;;;;;;5053459;28;20040;-70
2023/10/07 10:32:34;;;;;;;0.50;0.50;;;23.00;41.20;;;;;;5036669;28;20087;-72
2023/10/07 10:35:03;;;;;;;0.30;0.30;;;23.10;41.10;;;;;;5053481;28;20043;-69
2023/10/07 10:37:30;;;;;;;0.60;0.50;;;23.20;40.90;;;;;;5035054;28;20036;-69
2023/10/07 10:40:17;;;;;;;0.70;0.40;;;23.30;40.80;;;;;;5035060;28;20482;-70
2023/10/07 10:42:47;;;;;;;0.98;0.82;;;23.30;41.40;;;;;;5051698;28;20090;-70
2023/10/07 10:45:32;;;;;;;1.15;0.43;;;23.30;42.10;;;;;;5034912;28;20064;-73
2023/10/07 10:47:59;;;;;;;0.68;0.30;;;23.40;42.10;;;;;;5052542;28;20029;-69
2023/10/07 10:50:28;;;;;;;0.55;0.50;;;23.40;41.20;;;;;;5033971;28;20119;-70
2023/10/07 10:53:16;;;;;;;0.43;0.40;;;23.50;40.90;;;;;;5035165;28;20083;-69
2023/10/07 10:55:42;;;;;;;0.47;0.47;;;23.60;41.30;;;;;;5034633;28;20037;-70
2023/10/07 10:58:27;;;;;;;1.17;0.77;;;23.90;40.50;;;;;;5052505;28;20061;-72
2023/10/07 11:00:54;;;;;;;1.08;0.55;;;24.10;40.10;;;;;;5017279;28;20037;-72
2023/10/07 11:03:21;;;;;;;1.50;0.50;;;24.10;40.10;;;;;;5034663;28;20432;-72
2023/10/07 11:05:48;;;;;;;0.32;0.32;;;24.00;40.20;;;;;;5034202;28;20025;-73
2023/10/07 11:08:22;;;;;;;0.13;0.13;;;24.10;40.80;;;;;;5034490;28;20075;-71
2023/10/07 11:11:10;;;;;;;1.02;0.95;;;24.10;40.30;;;;;;5034449;28;20061;-72
2023/10/07 11:13:39;;;;;;;1.17;0.68;;;24.10;40.30;;;;;;5034883;28;20040;-72
2023/10/07 11:16:12;;;;;;;0.30;0.30;;;24.10;39.20;;;;;;5017596;28;20481;-72
2023/10/07 11:18:44;;;;;;;0.60;0.40;;;24.20;38.70;;;;;;5034285;28;20033;-71
2023/10/07 11:21:31;;;;;;;1.65;0.77;;;24.50;38.00;;;;;;5033411;28;20040;-72
2023/10/07 11:23:59;;;;;;;3.03;1.80;;;25.00;38.00;;;;;;5052461;28;20479;-72
2023/10/07 11:26:32;;;;;;;3.58;1.75;;;25.60;36.40;;;;;;5051484;28;20036;-71
2023/10/07 11:28:59;;;;;;;2.20;0.93;;;25.60;36.40;;;;;;5035294;28;20394;-70
2023/10/07 11:31:46;;;;;;;1.17;0.85;;;25.50;36.60;;;;;;5033111;28;20415;-72
2023/10/07 11:34:13;;;;;;;1.50;0.68;;;25.10;37.30;;;;;;5033936;28;20041;-72
2023/10/07 11:37:09;;;;;;;0.35;0.30;;;24.80;37.60;;;;;;5051557;28;20079;-72
2023/10/07 11:39:54;;;;;;;0.20;0.17;;;24.70;37.60;;;;;;5034692;28;20037;-73
2023/10/07 11:42:22;;;;;;;0.85;0.70;;;24.70;37.50;;;;;;5051096;28;20045;-72
2023/10/07 11:45:09;;;;;;;0.30;0.30;;;24.70;36.70;;;;;;5017813;28;20033;-71
2023/10/07 11:47:39;;;;;;;;;;;24.70;37.30;;;;;;5034848;28;20033;-72
2023/10/07 11:50:07;;;;;;;0.32;0.30;;;24.80;37.10;;;;;;5051197;28;19925;-72
2023/10/07 11:52:33;;;;;;;0.20;0.20;;;25.10;36.10;;;;;;5051544;28;20037;-72
2023/10/07 11:55:00;;;;;;;0.38;0.35;;;25.30;36.40;;;;;;5052152;28;20087;-72
2023/10/07 11:57:27;;;;;;;1.58;0.60;;;26.00;35.20;;;;;;5033517;28;20033;-70
2023/10/07 11:59:53;;;;;;;0.20;0.20;;;26.60;33.10;;;;;;5052078;28;20061;-72
2023/10/07 12:02:21;;;;;;;0.88;0.82;;;26.40;33.10;;;;;;5050706;28;20091;-72
2023/10/07 12:04:48;;;;;;;0.68;0.40;;;26.20;34.80;;;;;;5033804;28;20457;-72
2023/10/07 12:07:35;;;;;;;0.60;0.60;;;26.50;33.80;;;;;;5051120;28;20082;-71
2023/10/07 12:10:04;;;;;;;0.63;0.25;;;27.00;33.70;;;;;;5034145;28;20116;-70
2023/10/07 12:12:32;;;;;;;1.42;1.33;;;26.90;33.40;;;;;;5016734;28;20055;-70
2023/10/07 12:14:59;;;;;;;1.63;1.00;;;27.00;34.20;;;;;;5034286;28;20451;-69
2023/10/07 12:17:25;;;;;;;0.60;0.52;;;26.90;32.90;;;;;;5051053;28;20063;-71
2023/10/07 12:19:51;;;;;;;0.20;0.20;;;26.70;32.80;;;;;;5033702;28;20132;-69
2023/10/07 12:22:17;;;;;;;0.73;0.68;;;26.60;33.00;;;;;;5050348;28;20052;-72
2023/10/07 12:24:43;;;;;;;0.52;0.40;;;26.40;33.80;;;;;;5033959;28;20076;-72
2023/10/07 12:27:10;;;;;;;0.93;0.73;;;26.40;33.20;;;;;;5051000;28;20033;-72
2023/10/07 12:29:38;;;;;;;1.13;0.65;;;26.30;34.00;;;;;;5033928;28;20071;-70
2023/10/07 12:32:06;;;;;;;0.68;0.47;;;26.40;33.10;;;;;;5050448;28;20608;-71
2023/10/07 12:34:32;;;;;;;0.30;0.22;;;26.40;33.00;;;;;;5033527;28;20033;-72
2023/10/07 12:36:58;;;;;;;0.22;0.22;;;26.40;33.50;;;;;;5051078;28;20037;-72
2023/10/07 12:39:24;;;;;;;0.10;0.10;;;26.40;33.60;;;;;;5051276;28;20049;-72
2023/10/07 12:41:50;;;;;;;2.17;1.20;;;26.40;33.40;;;;;;5032489;28;20033;-72
2023/10/07 12:44:16;;;;;;;0.95;0.60;;;26.50;33.50;;;;;;5051755;28;20041;-72
2023/10/07 12:46:43;;;;;;;0.30;0.30;;;26.50;33.00;;;;;;5054056;28;20481;-71
2023/10/07 12:49:11;;;;;;;1.38;0.82;;;26.50;33.60;;;;;;5037445;28;20099;-72
2023/10/07 12:51:57;;;;;;;5.78;0.60;;;27.10;33.10;;;;;;5053862;28;20059;-72
2023/10/07 12:54:23;;;;;;;0.22;0.22;;;28.20;30.10;;;;;;5055380;28;20063;-72
2023/10/07 12:56:50;;;;;;;0.75;0.75;;;28.50;29.60;;;;;;5036603;28;20502;-72
2023/10/07 12:59:23;;;;;;;0.40;0.30;;;29.40;29.00;;;;;;5055090;28;20534;-72
2023/10/07 13:01:51;;;;;;;0.40;0.25;;;29.40;28.70;;;;;;5053679;28;20045;-72
2023/10/07 13:04:37;;;;;;;2.30;1.85;;;29.10;30.60;;;;;;5053170;28;20048;-72
2023/10/07 13:07:03;;;;;;;1.17;0.85;;;31.10;27.00;;;;;;5028233;28;20067;-72
2023/10/07 13:09:30;;;;;;;1.15;0.98;;;34.40;25.40;;;;;;5053628;28;20037;-73
2023/10/07 13:12:17;;;;;;;3.05;2.05;;;37.00;22.20;;;;;;5053378;28;20493;-72
2023/10/07 13:14:45;;;;;;;1.77;1.67;;;39.00;20.10;;;;;;5037075;28;20049;-72
2023/10/07 13:17:13;;;;;;;0.60;0.50;;;39.90;18.10;;;;;;5054113;28;20033;-72
2023/10/07 13:19:43;;;;;;;1.23;0.88;;;41.10;17.20;;;;;;5054841;28;20393;-72
2023/10/07 13:22:09;;;;;;;1.48;0.82;;;41.70;16.40;;;;;;5036104;28;20041;-72
2023/10/07 13:24:35;;;;;;;2.50;1.65;;;42.60;15.50;;;;;;5054513;28;20094;-72
2023/10/07 13:27:02;;;;;;;1.15;0.88;;;43.10;15.60;;;;;;5036158;28;20383;-72
2023/10/07 13:29:28;;;;;;;0.50;0.50;;;43.50;15.30;;;;;;5036347;28;20228;-73
2023/10/07 13:31:54;;;;;;;1.05;0.95;;;43.80;14.90;;;;;;5053235;28;20453;-73
2023/10/07 13:34:21;;;;;;;2.03;1.17;;;44.10;14.40;;;;;;5036332;28;20025;-73
2023/10/07 13:36:48;;;;;;;1.55;1.15;;;44.50;13.90;;;;;;5053646;28;20080;-73
2023/10/07 13:39:17;;;;;;;2.08;1.77;;;44.80;13.80;;;;;;5036471;28;20083;-73
2023/10/07 13:42:09;;;;;;;1.00;0.90;;;45.20;14.40;;;;;;5053244;28;20562;-73
2023/10/07 13:44:35;;;;;;;0.98;0.75;;;45.90;13.80;;;;;;5054269;28;20083;-72
2023/10/07 13:47:02;;;;;;;0.75;0.73;;;46.50;13.30;;;;;;5053548;28;20044;-72
2023/10/07 13:49:28;;;;;;;1.10;1.00;;;46.50;13.30;;;;;;5054052;28;20106;-72
2023/10/07 13:52:05;;;;;;;0.82;0.73;;;46.80;13.60;;;;;;5034960;28;20452;-72
2023/10/07 13:57:02;;;;;;;0.63;0.63;;;47.00;13.30;;;;;;5052507;28;20045;-72
2023/10/07 13:59:28;;;;;;;0.57;0.57;;;46.90;13.70;;;;;;5053980;28;20367;-71
2023/10/07 14:02:00;;;;;;;0.70;0.60;;;46.80;12.20;;;;;;5052765;28;20049;-72
2023/10/07 14:04:26;;;;;;;0.82;0.68;;;46.40;13.20;;;;;;5036746;28;20355;-72
2023/10/07 14:09:38;;;;;;;0.75;0.75;;;46.70;12.90;;;;;;5053978;28;20051;-72
2023/10/07 14:12:06;;;;;;;0.60;0.60;;;46.80;13.00;;;;;;5034650;28;20075;-72
2023/10/07 14:14:32;;;;;;;1.38;1.10;;;47.00;12.90;;;;;;5053430;28;20156;-71
2023/10/07 14:16:59;;;;;;;0.75;0.70;;;46.90;13.00;;;;;;5052993;28;20432;-72
2023/10/07 14:19:26;;;;;;;0.60;0.60;;;46.80;13.00;;;;;;5035386;28;20134;-72
2023/10/07 14:21:53;;;;;;;1.52;1.40;;;46.80;12.70;;;;;;5052252;28;20047;-72
2023/10/07 14:24:22;;;;;;;2.15;1.00;;;46.80;12.60;;;;;;5035544;28;20060;-72
2023/10/07 14:26:48;;;;;;;1.05;0.95;;;46.90;13.00;;;;;;5052576;28;20503;-72
2023/10/07 14:29:14;;;;;;;1.05;0.95;;;46.90;12.20;;;;;;5053347;28;20041;-72
2023/10/07 14:34:27;;;;;;;1.23;1.03;;;46.40;12.40;;;;;;5053546;28;20098;-72
2023/10/07 14:36:54;;;;;;;1.38;0.98;;;46.10;13.30;;;;;;5034749;28;20037;-72
2023/10/07 14:39:22;;;;;;;1.60;1.25;;;45.60;13.50;;;;;;5035310;28;20040;-72
2023/10/07 14:41:48;;;;;;;0.85;0.82;;;45.50;13.50;;;;;;5052012;28;20069;-72
2023/10/07 14:44:15;;;;;;;1.48;1.08;;;45.30;14.00;;;;;;5035067;28;20079;-72
2023/10/07 14:46:42;;;;;;;1.00;0.88;;;45.10;14.00;;;;;;5034963;28;20057;-72
2023/10/07 14:49:08;;;;;;;1.42;1.15;;;45.20;14.10;;;;;;5053140;28;20040;-72
2023/10/07 14:51:34;;;;;;;0.77;0.70;;;44.90;13.50;;;;;;5050398;28;20068;-72